Terminal Aerodrome Forecast
Issued by NWS Omaha/Valley, NE

Home | Current Version | Previous Version | Text Only | Print | Product List | Glossary Off
Versions: 1 2 3 4 5 6 7 8 9 10 11 12 13 14 15 16 17 18 19

000
FTUS43 KOAX 241808 AAA
TAFOFK
TAF AMD
KOFK 241808Z 2418/2518 VRB03KT P6SM FEW009 BKN022 OVC035
     FM241900 00000KT 2SM BR VCSH SCT009 OVC025
     FM242200 27007KT P6SM OVC015
     FM242300 28006KT P6SM OVC035
     FM250300 29008KT P6SM SCT090=

USA.gov is the U.S. government's official web portal to all federal, state and local government web resources and services.